Time;durP1;ratioP1;P1;durP2;ratioP2;P2;SDS_P1;SDS_P2;PMS_P1;PMS_P2;Temp;Humidity;BMP_temperature;BMP_pressure;BME280_temperature;BME280_humidity;BME280_pressure;Samples;Min_cycle;Max_cycle;Signal;HPM_P1;HPM_P2
2022/10/24 00:00:28;;;;;;;12.32;1.77;;;;;;;-145.69;81.82;52283.97;5115248;28;20201;-81
2022/10/24 00:02:55;;;;;;;12.32;2.20;;;;;;;-145.69;81.54;52299.81;5114373;28;20205;-82
2022/10/24 00:05:23;;;;;;;14.60;2.25;;;;;;;-145.69;79.85;52317.66;5114382;28;20190;-82
2022/10/24 00:07:50;;;;;;;9.10;1.73;;;;;;;-145.69;79.51;52289.91;5114566;28;20229;-82
2022/10/24 00:10:17;;;;;;;8.73;1.80;;;;;;;-145.69;81.42;52347.34;5114379;28;20204;-82
2022/10/24 00:12:45;;;;;;;14.07;2.08;;;;;;;-145.69;82.05;52341.41;5114788;28;20197;-81
2022/10/24 00:15:15;;;;;;;13.13;2.28;;;;;;;-145.69;82.26;52319.63;5114650;28;20296;-82
2022/10/24 00:17:41;;;;;;;11.40;1.75;;;;;;;-145.69;82.47;52313.69;5115093;28;20209;-81
2022/10/24 00:20:09;;;;;;;10.65;1.45;;;;;;;-145.69;81.99;52295.84;5115326;28;20193;-81
2022/10/24 00:22:37;;;;;;;8.95;1.83;;;;;;;-145.69;83.55;52329.53;5114015;28;20205;-81
2022/10/24 00:25:04;;;;;;;8.98;1.90;;;;;;;-145.69;85.03;52319.63;5114249;28;20204;-82
2022/10/24 00:27:31;;;;;;;10.98;1.92;;;;;;;-145.69;83.74;52327.53;5114214;28;20229;-81
2022/10/24 00:29:58;;;;;;;8.43;1.83;;;;;;;-145.69;83.76;52297.84;5113931;28;20300;-82
2022/10/24 00:32:24;;;;;;;6.60;1.77;;;;;;;-145.69;82.42;52321.59;5113761;28;20189;-82
2022/10/24 00:34:51;;;;;;;20.67;1.85;;;;;;;-145.69;80.22;52307.75;5114123;28;20335;-82
2022/10/24 00:37:18;;;;;;;15.15;1.95;;;;;;;-145.69;80.11;52313.69;5113634;28;20197;-82
2022/10/24 00:39:45;;;;;;;11.50;2.03;;;;;;;-145.69;78.15;52317.66;5115420;28;20233;-83
2022/10/24 00:42:12;;;;;;;7.97;1.63;;;;;;;-145.69;79.26;52313.69;5114245;28;20197;-82
2022/10/24 00:44:41;;;;;;;11.20;2.35;;;;;;;-145.69;79.26;52319.63;5114195;28;20197;-82
2022/10/24 00:47:12;;;;;;;12.65;2.00;;;;;;;-145.69;78.21;52305.75;5114225;28;20197;-82
2022/10/24 00:49:46;;;;;;;15.02;2.40;;;;;;;-145.69;77.29;52301.81;5113948;28;20675;-82
2022/10/24 00:52:16;;;;;;;11.43;2.22;;;;;;;-145.69;76.61;52289.91;5114406;28;20201;-82
2022/10/24 00:54:43;;;;;;;12.43;2.45;;;;;;;-145.69;75.75;52299.81;5113922;28;20201;-82
2022/10/24 00:57:19;;;;;;;8.00;2.30;;;;;;;-145.69;76.36;52325.56;5114433;28;20197;-82
2022/10/24 00:59:47;;;;;;;9.27;1.80;;;;;;;-145.69;77.39;52285.97;5114203;28;20207;-82
2022/10/24 01:02:14;;;;;;;10.85;2.28;;;;;;;-145.69;77.89;52262.19;5113618;28;20186;-83
2022/10/24 01:04:40;;;;;;;9.32;1.55;;;;;;;-145.69;78.11;52295.84;5113696;28;20624;-81
2022/10/24 01:07:24;;;;;;;9.80;1.67;;;;;;;-145.69;76.66;52305.75;5113218;28;20201;-82
2022/10/24 01:10:08;;;;;;;9.25;2.00;;;;;;;-145.69;77.09;52293.88;5116129;28;20201;-82
2022/10/24 01:12:46;;;;;;;12.40;2.20;;;;;;;-145.69;76.72;52291.91;5117052;28;20647;-82
2022/10/24 01:15:19;;;;;;;13.73;1.98;;;;;;;-145.69;80.42;52276.06;5117443;28;20655;-82
2022/10/24 01:17:53;;;;;;;15.10;2.10;;;;;;;-145.69;79.93;52301.81;5117068;28;20196;-82
2022/10/24 01:21:07;;;;;;;11.40;2.75;;;;;;;-145.69;81.74;52305.75;5117952;28;20195;-82
2022/10/24 01:24:01;;;;;;;12.68;2.70;;;;;;;-145.69;82.85;52321.59;5074974;28;20278;-82
2022/10/24 01:26:54;;;;;;;15.98;2.25;;;;;;;-145.69;84.71;52301.81;5111563;28;20189;-82
2022/10/24 01:29:35;;;;;;;14.85;2.10;;;;;;;-145.69;86.00;52319.63;5119278;28;20323;-81
2022/10/24 01:32:08;;;;;;;13.50;2.17;;;;;;;-145.69;88.35;52325.56;5119628;28;20197;-82
2022/10/24 01:34:42;;;;;;;13.05;2.70;;;;;;;-145.69;89.67;52305.75;5119153;28;20204;-81
2022/10/24 01:37:18;;;;;;;8.38;2.28;;;;;;;-145.69;91.72;52321.59;5120091;28;20197;-82
2022/10/24 01:39:48;;;;;;;15.10;2.15;;;;;;;-145.69;91.53;52301.81;5119745;28;20651;-82
2022/10/24 01:42:20;;;;;;;8.45;2.30;;;;;;;-145.69;91.76;52325.56;5119395;28;20224;-82
2022/10/24 01:44:51;;;;;;;11.02;2.30;;;;;;;-145.69;92.39;52321.59;5107458;28;20206;-82
2022/10/24 01:47:21;;;;;;;12.65;2.33;;;;;;;-145.69;92.54;52303.78;5096946;28;20194;-82
2022/10/24 01:49:53;;;;;;;16.85;2.67;;;;;;;-145.69;95.43;52301.81;5100206;28;20229;-83
2022/10/24 01:52:21;;;;;;;10.50;2.33;;;;;;;-145.69;95.87;52321.59;5133516;27;20201;-82
2022/10/24 01:54:48;;;;;;;8.30;1.80;;;;;;;-145.69;96.77;52327.53;5137925;27;20203;-82
2022/10/24 01:57:15;;;;;;;9.95;2.22;;;;;;;-145.69;99.29;52349.31;5137538;27;20278;-82
2022/10/24 01:59:46;;;;;;;9.43;1.60;;;;;;;-145.69;100.00;52321.59;5137829;27;20745;-83
2022/10/24 02:02:20;;;;;;;10.30;1.83;;;;;;;-145.69;100.00;52313.69;5137439;27;20295;-83
2022/10/24 02:04:52;;;;;;;14.43;2.35;;;;;;;-145.69;100.00;52337.44;5137793;27;20284;-83
2022/10/24 02:07:21;;;;;;;14.13;2.20;;;;;;;-145.69;100.00;52327.53;5137394;27;20203;-83
2022/10/24 02:09:52;;;;;;;7.53;1.70;;;;;;;-145.69;100.00;52317.66;5137688;27;20224;-83
2022/10/24 02:12:23;;;;;;;11.57;1.92;;;;;;;-145.69;100.00;52339.44;5137996;27;20559;-83
2022/10/24 02:14:57;;;;;;;7.97;2.30;;;;;;;-145.69;100.00;52347.34;5137833;27;20620;-82
2022/10/24 02:17:25;;;;;;;9.38;2.00;;;;;;;-145.69;100.00;52392.91;5137860;27;20200;-82
2022/10/24 02:19:53;;;;;;;13.68;2.42;;;;;;;-145.69;100.00;52329.53;5138402;27;20292;-82
2022/10/24 02:22:27;;;;;;;10.65;2.17;;;;;;;-145.69;100.00;52341.41;5137401;27;20211;-82
2022/10/24 02:25:00;;;;;;;15.82;2.13;;;;;;;-145.69;100.00;52343.38;5138181;27;20204;-82
2022/10/24 02:27:33;;;;;;;7.93;2.20;;;;;;;-145.69;100.00;52337.44;5137936;27;20196;-82
2022/10/24 02:30:04;;;;;;;11.18;1.70;;;;;;;-145.69;100.00;52388.94;5137740;27;20230;-82
2022/10/24 02:32:35;;;;;;;11.85;2.00;;;;;;;-145.69;100.00;52343.38;5137548;27;20659;-81
2022/10/24 02:35:03;;;;;;;9.88;1.85;;;;;;;-145.69;100.00;52369.13;5138573;27;20315;-83
2022/10/24 02:37:32;;;;;;;10.73;2.40;;;;;;;-145.69;100.00;52345.38;5138268;27;20201;-83
2022/10/24 02:40:00;;;;;;;9.50;2.05;;;;;;;-145.69;100.00;52375.06;5138855;27;20197;-81
2022/10/24 02:42:27;;;;;;;12.65;2.55;;;;;;;-145.69;100.00;52381.00;5139329;27;20200;-82
2022/10/24 02:44:55;;;;;;;8.23;1.95;;;;;;;-145.69;100.00;52381.00;5125779;27;20292;-82
2022/10/24 02:47:25;;;;;;;12.15;2.20;;;;;;;-145.69;100.00;52351.31;5118545;28;20686;-83
2022/10/24 02:49:54;;;;;;;9.95;2.20;;;;;;;-145.69;100.00;52365.16;5117393;28;20458;-82
2022/10/24 02:52:22;;;;;;;9.23;2.30;;;;;;;-145.69;100.00;52361.22;5116939;28;20203;-82
2022/10/24 02:54:49;;;;;;;8.23;2.30;;;;;;;-145.69;100.00;52347.34;5116102;28;20204;-82
2022/10/24 02:57:15;;;;;;;10.75;1.98;;;;;;;-145.69;100.00;52398.84;5117342;28;20205;-82
2022/10/24 02:59:42;;;;;;;12.52;1.88;;;;;;;-145.69;100.00;52357.25;5117598;28;20296;-83
2022/10/24 03:02:09;;;;;;;9.57;2.15;;;;;;;-145.69;100.00;52381.00;5117069;28;20224;-82
2022/10/24 03:04:35;;;;;;;15.73;2.50;;;;;;;-145.69;100.00;52355.28;5117963;28;20198;-82
2022/10/24 03:07:03;;;;;;;9.32;2.25;;;;;;;-145.69;100.00;52355.28;5118153;28;20605;-82
2022/10/24 03:09:29;;;;;;;10.38;2.15;;;;;;;-145.69;100.00;52383.00;5117111;28;20229;-82
2022/10/24 03:11:56;;;;;;;7.90;2.20;;;;;;;-145.69;100.00;52339.44;5117355;28;20281;-82
2022/10/24 03:14:22;;;;;;;10.90;1.67;;;;;;;-145.69;100.00;52384.97;5117611;28;20199;-82
2022/10/24 03:16:49;;;;;;;9.05;1.70;;;;;;;-145.69;100.00;52353.28;5118474;28;20203;-82
2022/10/24 03:19:16;;;;;;;8.00;2.00;;;;;;;-145.69;100.00;52377.06;5118402;28;20229;-82
2022/10/24 03:21:42;;;;;;;8.30;2.10;;;;;;;-145.69;100.00;52361.22;5118298;28;20209;-82
2022/10/24 03:24:10;;;;;;;7.95;1.77;;;;;;;-145.69;100.00;52345.38;5117129;28;20721;-83
2022/10/24 03:26:37;;;;;;;8.68;2.45;;;;;;;-145.69;100.00;52388.94;5116315;28;20194;-83
2022/10/24 03:29:05;;;;;;;15.88;2.00;;;;;;;-145.69;100.00;52357.25;5115531;28;20813;-83
2022/10/24 03:31:32;;;;;;;10.48;1.85;;;;;;;-145.69;100.00;52384.97;5116897;28;20220;-83
2022/10/24 03:33:59;;;;;;;16.70;2.20;;;;;;;-145.69;100.00;52361.22;5115020;28;20611;-82
2022/10/24 03:36:28;;;;;;;11.18;2.10;;;;;;;-145.69;100.00;52383.00;5108243;28;20228;-82
2022/10/24 03:38:55;;;;;;;8.05;1.67;;;;;;;-145.69;100.00;52404.78;5094307;28;20255;-82
2022/10/24 03:41:23;;;;;;;11.95;2.05;;;;;;;-145.69;100.00;52369.13;5094566;28;20204;-82
2022/10/24 03:43:51;;;;;;;10.27;2.17;;;;;;;-145.69;100.00;52345.38;5095625;28;20209;-83
2022/10/24 03:46:18;;;;;;;10.48;2.35;;;;;;;-145.69;100.00;52379.03;5094074;28;20204;-83
2022/10/24 03:48:47;;;;;;;15.32;2.13;;;;;;;-145.69;100.00;52357.25;5094184;28;20226;-82
2022/10/24 03:51:14;;;;;;;5.75;1.77;;;;;;;-145.69;100.00;52361.22;5095703;28;20289;-81
2022/10/24 03:53:41;;;;;;;8.63;1.90;;;;;;;-145.69;100.00;52357.25;5097928;28;20627;-82
2022/10/24 03:56:08;;;;;;;5.13;2.03;;;;;;;-145.69;100.00;52335.47;5098151;28;20292;-82
2022/10/24 03:58:36;;;;;;;11.95;2.10;;;;;;;-145.69;100.00;52388.94;5098761;28;20285;-81
2022/10/24 04:01:02;;;;;;;9.63;1.88;;;;;;;-145.69;100.00;52333.47;5096946;28;20202;-81
2022/10/24 04:03:29;;;;;;;11.85;1.90;;;;;;;-145.69;100.00;52357.25;5096009;28;20226;-83
2022/10/24 04:05:55;;;;;;;11.32;2.00;;;;;;;-145.69;100.00;52369.13;5103850;28;20197;-82
2022/10/24 04:08:22;;;;;;;14.77;2.13;;;;;;;-145.69;100.00;52339.44;5116637;28;20208;-83
2022/10/24 04:10:49;;;;;;;9.95;1.88;;;;;;;-145.69;100.00;52363.19;5116304;28;20193;-83
2022/10/24 04:13:16;;;;;;;16.17;1.70;;;;;;;-145.69;100.00;52363.19;5115486;28;20201;-83
2022/10/24 04:15:44;;;;;;;10.98;1.70;;;;;;;-145.69;100.00;52357.25;5116383;28;20197;-83
2022/10/24 04:18:10;;;;;;;5.72;1.90;;;;;;;-145.69;100.00;52361.22;5116542;28;20232;-83
2022/10/24 04:20:37;;;;;;;10.45;1.73;;;;;;;-145.69;100.00;52392.91;5116158;28;20201;-81
2022/10/24 04:23:03;;;;;;;12.40;2.30;;;;;;;-145.69;100.00;52353.28;5116850;28;20205;-82
2022/10/24 04:25:30;;;;;;;7.97;1.75;;;;;;;-145.69;100.00;52373.09;5116809;28;20193;-83
2022/10/24 04:28:00;;;;;;;9.32;2.20;;;;;;;-145.69;100.00;52388.94;5116811;28;20202;-81
2022/10/24 04:30:27;;;;;;;10.15;1.83;;;;;;;-145.69;100.00;52384.97;5122319;28;20221;-82
2022/10/24 04:32:56;;;;;;;11.35;1.50;;;;;;;-145.69;100.00;52373.09;5115635;28;20197;-82
2022/10/24 04:35:23;;;;;;;5.90;1.60;;;;;;;-145.69;100.00;52365.16;5115902;28;20233;-81
2022/10/24 04:37:49;;;;;;;7.63;1.80;;;;;;;-145.69;100.00;52369.13;5116617;28;20208;-82
2022/10/24 04:40:16;;;;;;;7.82;1.85;;;;;;;-145.69;100.00;52384.97;5115562;28;20201;-82
2022/10/24 04:42:42;;;;;;;5.82;1.75;;;;;;;-145.69;100.00;52384.97;5115179;28;20204;-81
2022/10/24 04:45:13;;;;;;;11.43;2.00;;;;;;;-145.69;100.00;52369.13;5115585;28;20212;-82
2022/10/24 04:47:39;;;;;;;11.30;1.80;;;;;;;-145.69;100.00;52404.78;5119582;28;20208;-81
2022/10/24 04:50:08;;;;;;;11.02;1.80;;;;;;;-145.69;100.00;52400.81;5116185;28;20225;-80
2022/10/24 04:52:35;;;;;;;10.85;1.63;;;;;;;-145.69;100.00;52388.94;5115446;28;20197;-82
2022/10/24 04:55:01;;;;;;;6.80;1.92;;;;;;;-145.69;100.00;52388.94;5117310;28;20204;-82
2022/10/24 04:57:28;;;;;;;7.22;1.80;;;;;;;-145.69;100.00;52416.66;5095291;28;20202;-79
2022/10/24 04:59:54;;;;;;;6.47;1.98;;;;;;;-145.69;100.00;52384.97;5095082;28;20204;-82
2022/10/24 05:02:21;;;;;;;10.63;1.80;;;;;;;-145.69;100.00;52420.63;5095533;28;20198;-82
2022/10/24 05:04:47;;;;;;;9.68;1.73;;;;;;;-145.69;100.00;52396.84;5094517;28;20198;-82
2022/10/24 05:07:15;;;;;;;9.43;1.90;;;;;;;-145.69;100.00;52373.09;5104608;28;20203;-82
2022/10/24 05:09:42;;;;;;;5.20;1.30;;;;;;;-145.69;100.00;52361.22;5116108;28;20217;-82
2022/10/24 05:12:08;;;;;;;7.25;1.77;;;;;;;-145.69;100.00;52381.00;5116358;28;20207;-83
2022/10/24 05:14:35;;;;;;;7.75;1.70;;;;;;;-145.69;100.00;52396.84;5116879;28;20198;-83
2022/10/24 05:17:01;;;;;;;11.68;1.98;;;;;;;-145.69;100.00;52384.97;5117086;28;20197;-82
2022/10/24 05:19:28;;;;;;;7.55;2.00;;;;;;;-145.69;100.00;52390.91;5115901;28;20278;-82
2022/10/24 05:21:54;;;;;;;7.60;1.50;;;;;;;-145.69;100.00;52386.97;5116720;28;20551;-82
2022/10/24 05:24:22;;;;;;;7.15;1.23;;;;;;;-145.69;100.00;52377.06;5116119;28;20579;-82
2022/10/24 05:26:49;;;;;;;3.83;1.20;;;;;;;-145.69;100.00;52369.13;5115493;28;20210;-81
2022/10/24 05:29:15;;;;;;;8.50;1.70;;;;;;;-145.69;100.00;52351.31;5115571;28;20232;-82
2022/10/24 05:31:42;;;;;;;7.43;1.40;;;;;;;-145.69;100.00;52381.00;5101728;28;20202;-81
2022/10/24 05:34:08;;;;;;;7.22;1.70;;;;;;;-145.69;100.00;52365.16;5096416;28;20226;-82
2022/10/24 05:36:35;;;;;;;4.97;2.00;;;;;;;-145.69;100.00;52388.94;5094560;28;20439;-82
2022/10/24 05:39:01;;;;;;;4.47;1.40;;;;;;;-145.69;100.00;52343.38;5096045;28;20204;-82
2022/10/24 05:41:30;;;;;;;4.90;1.30;;;;;;;-145.69;100.00;52381.00;5094672;28;20714;-81
2022/10/24 05:43:56;;;;;;;5.88;1.55;;;;;;;-145.69;100.00;52381.00;5094328;28;20197;-81
2022/10/24 05:46:23;;;;;;;6.18;1.60;;;;;;;-145.69;100.00;52379.03;5094037;28;20209;-81
2022/10/24 05:48:52;;;;;;;6.25;1.35;;;;;;;-145.69;100.00;52345.38;5095993;28;20201;-81
2022/10/24 05:51:18;;;;;;;9.15;1.35;;;;;;;-145.69;100.00;52377.06;5094735;28;20557;-81
2022/10/24 05:53:45;;;;;;;5.57;1.45;;;;;;;-145.69;100.00;52365.16;5094130;28;20209;-80
2022/10/24 05:56:15;;;;;;;9.98;1.38;;;;;;;-145.69;100.00;52381.00;5094519;28;20195;-81
2022/10/24 05:58:43;;;;;;;4.22;1.27;;;;;;;-145.69;100.00;52377.06;5097004;28;20275;-80
2022/10/24 06:01:10;;;;;;;3.30;1.23;;;;;;;-145.69;100.00;52392.91;5096331;28;20289;-81
2022/10/24 06:03:36;;;;;;;3.55;1.52;;;;;;;-145.69;100.00;52365.16;5096426;28;20224;-80
2022/10/24 06:06:07;;;;;;;9.27;1.83;;;;;;;-145.69;100.00;52369.13;5096768;28;20202;-81
2022/10/24 06:08:34;;;;;;;10.93;1.63;;;;;;;-145.69;100.00;52369.13;5096582;28;20206;-81
2022/10/24 06:11:01;;;;;;;9.13;1.85;;;;;;;-145.69;100.00;52400.81;5096619;28;20278;-81
2022/10/24 06:13:28;;;;;;;5.07;1.65;;;;;;;-145.69;100.00;52398.84;5096880;28;20204;-81
2022/10/24 06:15:59;;;;;;;4.32;1.75;;;;;;;-145.69;100.00;52432.50;5102685;28;20197;-81
2022/10/24 06:18:26;;;;;;;8.45;1.75;;;;;;;-145.69;100.00;52400.81;5117364;28;20202;-81
2022/10/24 06:20:53;;;;;;;4.15;1.38;;;;;;;-145.69;100.00;52392.91;5116596;28;20294;-81
2022/10/24 06:23:20;;;;;;;10.07;2.20;;;;;;;-145.69;100.00;52392.91;5117540;28;20202;-81
2022/10/24 06:25:47;;;;;;;5.80;1.45;;;;;;;-145.69;100.00;52361.22;5119492;28;20620;-82
2022/10/24 06:28:13;;;;;;;8.20;2.00;;;;;;;-145.69;100.00;52361.22;5117980;28;20727;-82
2022/10/24 06:30:41;;;;;;;13.02;1.98;;;;;;;-145.69;100.00;52386.97;5117463;28;20225;-82
2022/10/24 06:33:09;;;;;;;8.15;1.90;;;;;;;-145.69;100.00;52396.84;5117423;28;20198;-81
2022/10/24 06:35:35;;;;;;;7.60;1.83;;;;;;;-145.69;100.00;52386.97;5117164;28;20252;-81
2022/10/24 06:38:02;;;;;;;6.18;1.60;;;;;;;-145.69;100.00;52398.84;5117645;28;20204;-80
2022/10/24 06:40:29;;;;;;;5.63;1.25;;;;;;;-145.69;100.00;52373.09;5117298;28;20233;-82
2022/10/24 06:42:56;;;;;;;6.07;1.48;;;;;;;-145.69;100.00;52404.78;5117011;28;20560;-81
2022/10/24 06:45:23;;;;;;;6.40;1.52;;;;;;;-145.69;100.00;52428.53;5116840;28;20202;-82
2022/10/24 06:47:50;;;;;;;11.68;1.80;;;;;;;-145.69;100.00;52388.94;5116075;28;20193;-82
2022/10/24 06:50:18;;;;;;;7.00;2.03;;;;;;;-145.69;100.00;52420.63;5116472;28;20316;-81
2022/10/24 06:52:44;;;;;;;10.35;1.75;;;;;;;-145.69;100.00;52400.81;5116672;28;20600;-82
2022/10/24 06:55:11;;;;;;;7.97;1.70;;;;;;;-145.69;100.00;52422.59;5115954;28;20186;-81
2022/10/24 06:57:37;;;;;;;8.70;1.65;;;;;;;-145.69;100.00;52416.66;5116199;28;20205;-82
2022/10/24 07:00:05;;;;;;;12.00;1.80;;;;;;;-145.69;100.00;52404.78;5119087;28;20205;-81
2022/10/24 07:02:32;;;;;;;11.85;1.63;;;;;;;-145.69;100.00;52379.03;5117796;28;20333;-81
2022/10/24 07:05:02;;;;;;;8.48;1.80;;;;;;;-145.69;100.00;52400.81;5117590;28;20197;-81
2022/10/24 07:07:29;;;;;;;8.50;1.98;;;;;;;-145.69;100.00;52400.81;5117082;28;20197;-81
2022/10/24 07:09:57;;;;;;;8.63;2.17;;;;;;;-145.69;100.00;52450.31;5116983;28;20714;-81
2022/10/24 07:12:24;;;;;;;8.77;2.00;;;;;;;-145.69;100.00;52410.72;5117210;28;20197;-81
2022/10/24 07:14:58;;;;;;;7.35;1.73;;;;;;;-145.69;100.00;52398.84;5117802;28;20292;-81
2022/10/24 07:17:26;;;;;;;6.40;1.77;;;;;;;-145.69;100.00;52400.81;5118264;28;20276;-81
2022/10/24 07:19:53;;;;;;;5.72;1.50;;;;;;;-145.69;100.00;52418.63;5118990;28;20213;-81
2022/10/24 07:22:26;;;;;;;6.22;1.50;;;;;;;-145.69;100.00;52440.44;5118462;28;20193;-82
2022/10/24 07:24:57;;;;;;;8.45;1.90;;;;;;;-145.69;100.00;52414.69;5116667;28;20598;-82
2022/10/24 07:27:24;;;;;;;6.07;1.67;;;;;;;-145.69;100.00;52402.78;5116092;28;20219;-82
2022/10/24 07:29:51;;;;;;;5.70;1.52;;;;;;;-145.69;100.00;52416.66;5115826;28;20225;-82
2022/10/24 07:32:18;;;;;;;10.82;1.83;;;;;;;-145.69;100.00;52400.81;5107303;28;20664;-82
2022/10/24 07:34:47;;;;;;;5.60;1.48;;;;;;;-145.69;100.00;52392.91;5094465;28;20206;-83
2022/10/24 07:37:14;;;;;;;9.55;1.60;;;;;;;-145.69;100.00;52398.84;5097692;28;20202;-82
2022/10/24 07:39:41;;;;;;;8.68;1.33;;;;;;;-145.69;100.00;52377.06;5097242;28;20214;-82
2022/10/24 07:42:10;;;;;;;6.95;1.65;;;;;;;-145.69;100.00;52369.13;5095952;28;20560;-82
2022/10/24 07:44:37;;;;;;;4.72;1.45;;;;;;;-145.69;100.00;52400.81;5095861;28;20293;-82
2022/10/24 07:47:05;;;;;;;11.10;1.55;;;;;;;-145.69;100.00;52390.91;5110819;28;20227;-83
2022/10/24 07:49:37;;;;;;;10.85;2.22;;;;;;;-145.69;100.00;52406.75;5114881;28;20197;-83
2022/10/24 07:52:05;;;;;;;4.07;1.50;;;;;;;-145.69;100.00;52412.69;5115654;28;20668;-84
2022/10/24 07:54:37;;;;;;;5.88;1.50;;;;;;;-145.69;100.00;52390.91;5114749;28;20652;-83
2022/10/24 07:57:04;;;;;;;7.63;1.63;;;;;;;-145.69;100.00;52381.00;5114222;28;20202;-84
2022/10/24 07:59:33;;;;;;;5.75;1.60;;;;;;;-145.69;100.00;52392.91;5094986;28;20652;-83
2022/10/24 08:02:01;;;;;;;6.47;1.17;;;;;;;-145.69;100.00;52406.75;5095126;28;20209;-83
2022/10/24 08:04:29;;;;;;;9.52;1.52;;;;;;;-145.69;100.00;52386.97;5107899;28;20221;-84
2022/10/24 08:06:56;;;;;;;7.40;1.55;;;;;;;-145.69;100.00;52396.84;5113808;28;20193;-84
2022/10/24 08:09:23;;;;;;;7.18;1.52;;;;;;;-145.69;100.00;52345.38;5114443;27;20197;-83
2022/10/24 08:11:49;;;;;;;5.28;1.50;;;;;;;-145.69;100.00;52365.16;5113610;28;20546;-83
2022/10/24 08:14:16;;;;;;;9.25;2.08;;;;;;;-145.69;100.00;52383.00;5112248;27;20201;-83
2022/10/24 08:16:44;;;;;;;9.65;1.45;;;;;;;-145.69;100.00;52392.91;5107436;28;20198;-82
2022/10/24 08:19:17;;;;;;;3.97;1.50;;;;;;;-145.69;100.00;52404.78;5104835;28;20205;-83
2022/10/24 08:21:43;;;;;;;5.25;1.30;;;;;;;-145.69;100.00;52373.09;5092976;28;20443;-82
2022/10/24 08:24:10;;;;;;;4.90;1.40;;;;;;;-145.69;100.00;52383.00;5094125;28;20207;-83
2022/10/24 08:26:41;;;;;;;6.82;1.48;;;;;;;-145.69;100.00;52384.97;5093531;28;20195;-82
2022/10/24 08:29:13;;;;;;;5.75;1.35;;;;;;;-145.69;100.00;52388.94;5094510;28;20288;-83
2022/10/24 08:31:46;;;;;;;2.97;1.20;;;;;;;-145.69;100.00;52408.75;5093721;28;20226;-82
2022/10/24 08:34:13;;;;;;;4.85;1.33;;;;;;;-145.69;100.00;52408.75;5103820;28;20197;-81
2022/10/24 08:36:45;;;;;;;4.90;1.30;;;;;;;-145.69;100.00;52394.88;5113899;28;20591;-80
2022/10/24 08:39:15;;;;;;;6.35;1.85;;;;;;;-145.69;100.00;52404.78;5094434;28;20679;-80
2022/10/24 08:41:46;;;;;;;4.43;1.35;;;;;;;-145.69;100.00;52398.84;5094273;28;20202;-80
2022/10/24 08:44:21;;;;;;;6.82;1.33;;;;;;;-145.69;100.00;52392.91;5093423;28;20201;-80
2022/10/24 08:46:52;;;;;;;7.55;1.88;;;;;;;-145.69;100.00;52398.84;5093081;28;20260;-80
2022/10/24 08:49:28;;;;;;;5.40;1.50;;;;;;;-145.69;100.00;52444.38;5093934;28;20200;-80
2022/10/24 08:52:00;;;;;;;7.57;1.88;;;;;;;-145.69;100.00;52379.03;5093262;28;20456;-83
2022/10/24 08:54:35;;;;;;;7.63;1.83;;;;;;;-145.69;100.00;52412.69;5093678;28;20198;-80
2022/10/24 08:57:02;;;;;;;11.45;2.40;;;;;;;-145.69;100.00;52402.78;5092305;28;20209;-80
2022/10/24 08:59:32;;;;;;;8.55;1.42;;;;;;;-145.69;100.00;52420.63;5093515;28;20307;-81
2022/10/24 09:02:04;;;;;;;7.38;1.63;;;;;;;-145.69;100.00;52438.44;5093483;28;20205;-79
2022/10/24 09:04:42;;;;;;;7.47;1.63;;;;;;;-145.69;100.00;52404.78;5092928;28;20216;-83
2022/10/24 09:07:18;;;;;;;9.63;2.00;;;;;;;-145.69;100.00;52412.69;5092644;28;20575;-82
2022/10/24 09:09:48;;;;;;;4.90;1.40;;;;;;;-145.69;100.00;52418.63;5092734;28;20206;-82
2022/10/24 09:12:16;;;;;;;7.80;1.63;;;;;;;-145.69;100.00;52383.00;5092970;28;20237;-82
2022/10/24 09:14:44;;;;;;;11.95;1.55;;;;;;;-145.69;100.00;52440.44;5092914;28;20205;-83
2022/10/24 09:17:18;;;;;;;7.80;1.60;;;;;;;-145.69;100.00;52418.63;5092959;28;20199;-82
2022/10/24 09:19:50;;;;;;;5.57;1.23;;;;;;;-145.69;100.00;52460.22;5092662;28;20197;-81
2022/10/24 09:22:17;;;;;;;5.72;1.10;;;;;;;-145.69;100.00;52404.78;5092631;28;20208;-82
2022/10/24 09:24:47;;;;;;;2.00;1.08;;;;;;;-145.69;100.00;52406.75;5092931;28;20205;-82
2022/10/24 09:27:17;;;;;;;6.10;1.00;;;;;;;-145.69;100.00;52408.75;5092632;28;20251;-81
2022/10/24 09:29:44;;;;;;;8.57;1.50;;;;;;;-145.69;100.00;52442.41;5093208;28;20202;-82
2022/10/24 09:32:17;;;;;;;5.28;1.17;;;;;;;-145.69;100.00;52418.63;5096645;28;20234;-82
2022/10/24 09:34:45;;;;;;;5.15;1.30;;;;;;;-145.69;100.00;52402.78;5078677;28;20268;-83
2022/10/24 09:37:32;;;;;;;4.10;1.15;;;;;;;-145.69;100.00;52412.69;5083062;28;20194;-83
2022/10/24 09:40:08;;;;;;;7.22;1.40;;;;;;;-145.69;100.00;52420.63;5076313;28;20195;-83
2022/10/24 09:42:36;;;;;;;3.10;1.35;;;;;;;-145.69;100.00;52440.44;5092905;28;20616;-83
2022/10/24 09:45:19;;;;;;;3.95;1.42;;;;;;;-145.69;100.00;52420.63;5096567;28;20198;-84
2022/10/24 09:47:55;;;;;;;7.43;1.13;;;;;;;-145.69;100.00;52404.78;5085830;28;20203;-82
2022/10/24 09:50:23;;;;;;;6.82;1.40;;;;;;;-145.69;100.00;52440.44;5075890;28;20289;-83
2022/10/24 09:52:52;;;;;;;5.68;1.73;;;;;;;-145.69;100.00;52400.81;5081794;28;20205;-83
2022/10/24 09:55:23;;;;;;;4.38;1.08;;;;;;;-145.69;100.00;52456.28;5098644;28;20202;-82
2022/10/24 09:57:53;;;;;;;4.40;1.25;;;;;;;-145.69;100.00;52464.19;5097576;28;20202;-80
2022/10/24 10:00:23;;;;;;;3.38;1.10;;;;;;;-145.69;100.00;52442.41;5097702;28;20247;-82
2022/10/24 10:03:03;;;;;;;2.88;1.42;;;;;;;-145.69;100.00;52426.56;5096289;28;20198;-81
2022/10/24 10:05:42;;;;;;;3.17;1.15;;;;;;;-145.69;100.00;52428.53;5083005;28;20657;-81
2022/10/24 10:08:11;;;;;;;5.00;1.20;;;;;;;-145.69;100.00;52440.44;5096665;28;20198;-81
2022/10/24 10:10:38;;;;;;;6.28;1.30;;;;;;;-145.69;100.00;52452.31;5096198;28;20226;-83
2022/10/24 10:13:18;;;;;;;3.88;1.25;;;;;;;-145.69;100.00;52456.28;5096164;28;20198;-82
2022/10/24 10:15:49;;;;;;;6.10;1.45;;;;;;;-145.69;100.00;52442.41;5077050;28;20260;-82
2022/10/24 10:18:26;;;;;;;3.70;1.45;;;;;;;-145.69;100.00;52434.47;5076248;28;20675;-81
2022/10/24 10:21:11;;;;;;;3.95;1.17;;;;;;;-145.69;100.00;52424.59;5076160;28;20645;-81
2022/10/24 10:23:40;;;;;;;7.60;1.38;;;;;;;-145.69;100.00;52440.44;5075154;28;20318;-80
2022/10/24 10:26:13;;;;;;;3.95;1.42;;;;;;;-145.69;100.00;52402.78;5076264;28;20226;-81
2022/10/24 10:28:46;;;;;;;4.75;1.30;;;;;;;-145.69;100.00;52426.56;5076174;28;20199;-83
2022/10/24 10:31:21;;;;;;;3.42;1.27;;;;;;;-145.69;100.00;52416.66;5075790;28;20233;-82
2022/10/24 10:34:00;;;;;;;3.63;1.38;;;;;;;-145.69;100.00;52412.69;5075766;28;20206;-82
2022/10/24 10:36:32;;;;;;;4.15;1.23;;;;;;;-145.69;100.00;52440.44;5075333;28;20257;-83
2022/10/24 10:39:17;;;;;;;4.60;1.20;;;;;;;-145.69;100.00;52412.69;5075019;28;20560;-83
2022/10/24 10:41:49;;;;;;;2.92;1.10;;;;;;;-145.69;100.00;52420.63;5074794;28;20592;-83
2022/10/24 10:44:31;;;;;;;4.75;1.25;;;;;;;-145.69;100.00;52418.63;5075934;28;20218;-83
2022/10/24 10:47:06;;;;;;;5.22;1.30;;;;;;;-145.69;100.00;52430.53;5075123;28;20649;-82
2022/10/24 10:49:38;;;;;;;5.03;1.20;;;;;;;-145.69;100.00;52420.63;5076522;28;20657;-83
2022/10/24 10:52:08;;;;;;;3.13;1.27;;;;;;;-145.69;100.00;52416.66;5076878;28;20230;-83
2022/10/24 10:54:49;;;;;;;3.88;1.30;;;;;;;-145.69;100.00;52452.31;5077082;28;20206;-82
2022/10/24 10:57:19;;;;;;;1.35;0.82;;;;;;;-145.69;100.00;52424.59;5076072;28;20214;-82
2022/10/24 10:59:56;;;;;;;5.32;1.10;;;;;;;-145.69;100.00;52404.78;5075464;28;20221;-82
2022/10/24 11:02:42;;;;;;;2.75;1.13;;;;;;;-145.69;100.00;52442.41;5075568;28;20264;-83
2022/10/24 11:05:23;;;;;;;4.20;0.90;;;;;;;-145.69;100.00;52416.66;5076330;28;20208;-82
2022/10/24 11:07:59;;;;;;;2.45;1.00;;;;;;;-145.69;100.00;52396.84;5078922;28;20194;-82
2022/10/24 11:10:32;;;;;;;1.38;1.05;;;;;;;-145.69;100.00;52444.38;5097409;28;20233;-82
2022/10/24 11:13:06;;;;;;;3.72;1.20;;;;;;;-145.69;100.00;52440.44;5094372;28;20209;-83
2022/10/24 11:15:36;;;;;;;2.47;0.95;;;;;;;-145.69;100.00;52406.75;5095298;28;20198;-83
2022/10/24 11:18:08;;;;;;;3.40;1.13;;;;;;;-145.69;100.00;52452.31;5095231;28;20194;-82
2022/10/24 11:20:42;;;;;;;2.90;0.85;;;;;;;-145.69;100.00;52452.31;5095717;28;20202;-81